createdAt,value
2019-05-19T00:00:54.911Z,13.10
2019-05-19T00:03:22.985Z,13.00
2019-05-19T00:05:51.806Z,12.90
2019-05-19T00:08:19.873Z,12.90
2019-05-19T00:10:47.899Z,12.80
2019-05-19T00:13:15.908Z,12.80
2019-05-19T00:15:43.934Z,12.80
2019-05-19T00:18:11.942Z,12.90
2019-05-19T00:20:39.965Z,12.70
2019-05-19T00:23:08.065Z,12.70
2019-05-19T00:25:36.949Z,12.40
2019-05-19T00:28:05.026Z,12.40
2019-05-19T00:30:33.911Z,12.40
2019-05-19T00:33:01.934Z,12.40
2019-05-19T00:35:30.066Z,12.30
2019-05-19T00:37:58.853Z,12.20
2019-05-19T00:40:26.909Z,12.20
2019-05-19T00:42:55.705Z,12.20
2019-05-19T00:45:23.768Z,12.20
2019-05-19T00:47:52.658Z,12.20
2019-05-19T00:50:21.474Z,12.10
2019-05-19T00:52:49.533Z,12.10
2019-05-19T00:55:17.589Z,12.30
2019-05-19T00:57:46.381Z,12.20
2019-05-19T01:00:15.165Z,12.10
2019-05-19T01:02:43.218Z,12.10
2019-05-19T01:05:11.233Z,12.20
2019-05-19T01:07:39.270Z,12.20
2019-05-19T01:10:07.357Z,12.10
2019-05-19T01:12:35.381Z,11.90
2019-05-19T01:15:03.486Z,11.80
2019-05-19T01:17:32.393Z,11.80
2019-05-19T01:20:00.457Z,11.80
2019-05-19T01:22:28.533Z,11.80
2019-05-19T01:24:56.557Z,12.00
2019-05-19T01:27:24.591Z,12.00
2019-05-19T01:29:52.729Z,12.00
2019-05-19T01:32:20.753Z,12.00
2019-05-19T01:34:48.786Z,12.00
2019-05-19T01:37:17.561Z,12.20
2019-05-19T01:39:45.635Z,12.20
2019-05-19T01:42:15.133Z,12.00
2019-05-19T01:44:43.202Z,12.00
2019-05-19T01:47:11.225Z,11.90
2019-05-19T01:49:39.235Z,11.90
2019-05-19T01:52:08.038Z,11.80
2019-05-19T01:54:36.089Z,11.80
2019-05-19T01:57:05.000Z,11.50
2019-05-19T01:59:33.059Z,11.50
2019-05-19T02:02:01.086Z,11.50
2019-05-19T02:04:30.041Z,11.60
2019-05-19T02:06:58.185Z,11.50
2019-05-19T02:09:26.208Z,11.70
2019-05-19T02:11:54.268Z,11.60
2019-05-19T02:14:22.287Z,11.70
2019-05-19T02:16:51.073Z,11.50
2019-05-19T02:19:20.610Z,11.40
2019-05-19T02:21:49.474Z,11.50
2019-05-19T02:24:18.388Z,11.50
2019-05-19T02:26:46.406Z,11.50
2019-05-19T02:29:14.441Z,11.40
2019-05-19T02:31:42.451Z,11.40
2019-05-19T02:34:10.485Z,11.30
2019-05-19T02:36:38.486Z,11.30
2019-05-19T02:39:06.528Z,11.40
2019-05-19T02:41:34.573Z,11.40
2019-05-19T02:44:02.627Z,11.50
2019-05-19T02:46:31.521Z,11.40
2019-05-19T02:49:00.402Z,11.30
2019-05-19T02:51:29.294Z,11.30
2019-05-19T02:53:58.126Z,11.30
2019-05-19T02:56:26.128Z,11.30
2019-05-19T02:58:54.161Z,11.20
2019-05-19T03:01:22.223Z,11.20
2019-05-19T03:03:50.270Z,11.10
2019-05-19T03:06:18.352Z,11.00
2019-05-19T03:08:46.426Z,11.10
2019-05-19T03:11:14.478Z,11.10
2019-05-19T03:13:42.510Z,11.00
2019-05-19T03:16:12.069Z,10.70
2019-05-19T03:18:40.834Z,10.80
2019-05-19T03:21:11.683Z,10.90
2019-05-19T03:23:37.692Z,10.80
2019-05-19T03:26:06.581Z,10.80
2019-05-19T03:28:35.513Z,11.00
2019-05-19T03:31:08.192Z,11.00
2019-05-19T03:33:36.227Z,11.10
2019-05-19T03:36:05.143Z,11.00
2019-05-19T03:38:34.879Z,10.80
2019-05-19T03:41:02.939Z,10.80
2019-05-19T03:43:31.065Z,10.80
2019-05-19T03:45:59.869Z,10.70
2019-05-19T03:48:28.007Z,10.70
2019-05-19T03:50:56.810Z,10.70
2019-05-19T03:53:24.863Z,10.70
2019-05-19T03:55:52.942Z,10.80
2019-05-19T03:58:21.751Z,10.80
2019-05-19T04:00:50.639Z,10.90
2019-05-19T04:03:18.667Z,10.90
2019-05-19T04:05:46.714Z,10.90
2019-05-19T04:08:14.741Z,10.80
2019-05-19T04:10:42.823Z,10.80
2019-05-19T04:13:11.513Z,10.90
2019-05-19T04:15:39.585Z,11.10
2019-05-19T04:18:08.449Z,11.50
2019-05-19T04:20:37.257Z,11.60
2019-05-19T04:23:05.313Z,11.60
2019-05-19T04:25:33.388Z,12.00
2019-05-19T04:28:02.163Z,12.00
2019-05-19T04:30:30.963Z,12.10
2019-05-19T04:32:59.026Z,12.10
2019-05-19T04:35:27.916Z,12.00
2019-05-19T04:37:56.821Z,11.90
2019-05-19T04:40:25.697Z,11.80
2019-05-19T04:42:53.814Z,11.80
2019-05-19T04:45:22.254Z,11.90
2019-05-19T04:47:51.026Z,12.10
2019-05-19T04:50:19.935Z,12.30
2019-05-19T04:52:47.962Z,12.30
2019-05-19T04:55:16.076Z,12.30
2019-05-19T04:57:44.130Z,12.40
2019-05-19T05:00:12.975Z,12.40
2019-05-19T05:02:41.004Z,12.40
2019-05-19T05:05:09.063Z,12.50
2019-05-19T05:07:37.146Z,12.60
2019-05-19T05:10:05.181Z,12.60
2019-05-19T05:12:33.277Z,12.80
2019-05-19T05:15:01.315Z,13.10
2019-05-19T05:17:29.317Z,13.00
2019-05-19T05:19:57.385Z,13.00
2019-05-19T05:22:26.158Z,13.20
2019-05-19T05:24:54.961Z,13.40
2019-05-19T05:27:23.849Z,13.20
2019-05-19T05:29:52.761Z,13.00
2019-05-19T05:32:20.817Z,12.90
2019-05-19T05:34:48.885Z,13.30
2019-05-19T05:37:16.950Z,13.40
2019-05-19T05:39:45.769Z,14.10
2019-05-19T05:42:13.822Z,14.10
2019-05-19T05:44:42.703Z,14.20
2019-05-19T05:47:10.777Z,14.20
2019-05-19T05:49:38.801Z,14.50
2019-05-19T05:52:08.461Z,15.00
2019-05-19T05:54:36.522Z,15.00
2019-05-19T05:57:04.559Z,15.80
2019-05-19T05:59:32.689Z,16.70
2019-05-19T06:02:00.763Z,17.50
2019-05-19T06:04:28.789Z,17.50
2019-05-19T06:06:58.506Z,17.50
2019-05-19T06:09:27.497Z,17.90
2019-05-19T06:11:55.537Z,17.90
2019-05-19T06:14:23.645Z,17.80
2019-05-19T06:16:51.737Z,18.00
2019-05-19T06:19:19.773Z,17.40
2019-05-19T06:21:47.839Z,17.00
2019-05-19T06:24:15.925Z,17.10
2019-05-19T06:26:43.993Z,17.60
2019-05-19T06:29:12.905Z,17.50
2019-05-19T06:31:41.797Z,18.10
2019-05-19T06:34:09.814Z,18.00
2019-05-19T06:36:37.872Z,18.50
2019-05-19T06:39:05.921Z,18.80
2019-05-19T06:41:34.063Z,18.60
2019-05-19T06:44:03.408Z,18.50
2019-05-19T06:46:30.133Z,18.50
2019-05-19T06:48:58.275Z,19.20
2019-05-19T06:51:26.329Z,19.20
2019-05-19T06:53:54.406Z,19.40
2019-05-19T06:56:23.203Z,19.70
2019-05-19T06:58:51.285Z,19.70
2019-05-19T07:01:19.346Z,19.00
2019-05-19T07:03:47.386Z,18.90
2019-05-19T07:06:15.431Z,19.20
2019-05-19T07:08:43.571Z,19.20
2019-05-19T07:11:11.756Z,19.40
2019-05-19T07:13:40.519Z,19.70
2019-05-19T07:16:08.610Z,19.70
2019-05-19T07:18:36.669Z,20.00
2019-05-19T07:21:05.549Z,20.70
2019-05-19T07:23:33.598Z,20.70
2019-05-19T07:26:03.411Z,21.10
2019-05-19T07:28:31.416Z,21.10
2019-05-19T07:30:59.480Z,20.90
2019-05-19T07:33:27.500Z,21.00
2019-05-19T07:35:55.635Z,21.40
2019-05-19T07:38:23.679Z,21.40
2019-05-19T07:40:51.705Z,21.30
2019-05-19T07:43:19.782Z,21.20
2019-05-19T07:45:47.761Z,21.20
2019-05-19T07:48:16.605Z,21.60
2019-05-19T07:50:44.634Z,21.60
2019-05-19T07:53:14.101Z,21.50
2019-05-19T07:55:42.157Z,21.50
2019-05-19T07:58:10.306Z,21.20
2019-05-19T08:00:39.105Z,21.80
2019-05-19T08:03:07.167Z,21.80
2019-05-19T08:05:35.926Z,22.00
2019-05-19T08:08:04.731Z,22.00
2019-05-19T08:10:35.630Z,21.90
2019-05-19T08:13:05.091Z,22.70
2019-05-19T08:15:33.085Z,22.70
2019-05-19T08:18:01.177Z,22.80
2019-05-19T08:20:29.189Z,22.70
2019-05-19T08:22:57.234Z,23.00
2019-05-19T08:25:25.304Z,23.00
2019-05-19T08:27:54.120Z,23.00
2019-05-19T08:30:22.886Z,22.80
2019-05-19T08:32:50.984Z,22.70
2019-05-19T08:35:19.154Z,23.40
2019-05-19T08:37:47.210Z,23.50
2019-05-19T08:40:16.082Z,22.80
2019-05-19T08:42:44.220Z,22.80
2019-05-19T08:45:12.935Z,23.20
2019-05-19T08:47:42.462Z,21.80
2019-05-19T08:50:10.526Z,21.80
2019-05-19T08:52:39.448Z,22.30
2019-05-19T08:55:07.519Z,22.30
2019-05-19T08:57:35.704Z,22.60
2019-05-19T09:00:04.558Z,23.30
2019-05-19T09:02:32.596Z,23.90
2019-05-19T09:05:01.389Z,23.80
2019-05-19T09:07:29.609Z,23.80
2019-05-19T09:09:57.657Z,23.60
2019-05-19T09:12:25.811Z,24.00
2019-05-19T09:14:54.699Z,24.60
2019-05-19T09:17:23.521Z,25.20
2019-05-19T09:19:51.569Z,25.10
2019-05-19T09:22:19.653Z,25.40
2019-05-19T09:24:47.677Z,25.40
2019-05-19T09:27:15.893Z,25.10
2019-05-19T09:29:43.958Z,25.00
2019-05-19T09:32:12.020Z,24.70
2019-05-19T09:34:40.807Z,24.50
2019-05-19T09:37:09.690Z,24.90
2019-05-19T09:39:37.769Z,24.90
2019-05-19T09:42:05.805Z,25.00
2019-05-19T09:44:35.337Z,25.30
2019-05-19T09:47:03.409Z,25.30
2019-05-19T09:49:31.446Z,25.10
2019-05-19T09:51:59.654Z,25.20
2019-05-19T09:54:27.673Z,25.70
2019-05-19T09:56:55.800Z,26.00
2019-05-19T09:59:23.789Z,26.10
2019-05-19T10:01:51.848Z,26.10
2019-05-19T10:04:19.866Z,26.00
2019-05-19T10:06:48.035Z,25.90
2019-05-19T10:09:22.485Z,25.90
2019-05-19T10:11:58.754Z,25.90
2019-05-19T10:14:27.673Z,25.70
2019-05-19T10:16:55.698Z,25.70
2019-05-19T10:19:24.513Z,25.90
2019-05-19T10:21:52.545Z,25.90
2019-05-19T10:24:20.652Z,25.70
2019-05-19T10:26:48.686Z,25.70
2019-05-19T10:29:16.815Z,25.50
2019-05-19T10:31:44.857Z,25.60
2019-05-19T10:34:12.930Z,25.40
2019-05-19T10:36:41.707Z,26.00
2019-05-19T10:39:10.529Z,26.20
2019-05-19T10:41:38.553Z,26.20
2019-05-19T10:44:06.581Z,26.30
2019-05-19T10:46:34.613Z,26.20
2019-05-19T10:49:02.677Z,26.10
2019-05-19T10:51:31.597Z,26.30
2019-05-19T10:53:59.649Z,26.30
2019-05-19T10:56:27.675Z,26.60
2019-05-19T10:58:55.822Z,26.50
2019-05-19T11:01:23.837Z,26.30
2019-05-19T11:03:52.658Z,26.40
2019-05-19T11:06:20.685Z,26.40
2019-05-19T11:08:48.718Z,26.60
2019-05-19T11:11:16.745Z,26.60
2019-05-19T11:13:45.637Z,26.60
2019-05-19T11:16:14.547Z,26.90
2019-05-19T11:18:42.588Z,26.80
2019-05-19T11:21:11.397Z,26.70
2019-05-19T11:23:39.466Z,26.70
2019-05-19T11:26:07.502Z,26.60
2019-05-19T11:28:35.534Z,26.70
2019-05-19T11:31:03.602Z,27.00
2019-05-19T11:33:31.640Z,26.50
2019-05-19T11:35:59.710Z,26.30
2019-05-19T11:38:28.489Z,26.80
2019-05-19T11:40:57.380Z,27.30
2019-05-19T11:43:26.280Z,27.30
2019-05-19T11:45:55.177Z,27.10
2019-05-19T11:48:23.254Z,27.10
2019-05-19T11:50:51.310Z,26.50
2019-05-19T11:53:20.189Z,26.50
2019-05-19T11:55:48.267Z,26.50
2019-05-19T11:58:16.305Z,27.00
2019-05-19T12:00:44.420Z,27.40
2019-05-19T12:03:12.487Z,26.80
2019-05-19T12:05:40.580Z,26.80
2019-05-19T12:08:08.617Z,26.60
2019-05-19T12:10:36.645Z,26.90
2019-05-19T12:13:04.770Z,26.80
2019-05-19T12:15:32.788Z,26.60
2019-05-19T12:18:00.911Z,27.00
2019-05-19T12:20:28.967Z,27.50
2019-05-19T12:22:57.871Z,27.80
2019-05-19T12:25:25.907Z,27.80
2019-05-19T12:27:53.925Z,27.60
2019-05-19T12:30:21.958Z,26.70
2019-05-19T12:32:50.860Z,26.10
2019-05-19T12:35:19.652Z,26.70
2019-05-19T12:37:47.739Z,26.70
2019-05-19T12:40:15.766Z,27.10
2019-05-19T12:42:43.887Z,27.70
2019-05-19T12:45:11.908Z,28.20
2019-05-19T12:47:40.033Z,28.10
2019-05-19T12:50:08.286Z,27.60
2019-05-19T12:52:36.352Z,27.40
2019-05-19T12:55:05.280Z,27.20
2019-05-19T12:57:33.273Z,27.20
2019-05-19T13:00:01.398Z,27.40
2019-05-19T13:02:30.153Z,27.60
2019-05-19T13:05:04.852Z,27.50
2019-05-19T13:07:27.994Z,27.50
2019-05-19T13:09:56.022Z,27.40
2019-05-19T13:12:24.085Z,26.70
2019-05-19T13:14:52.182Z,26.40
2019-05-19T13:17:20.221Z,26.80
2019-05-19T13:19:49.141Z,27.30
2019-05-19T13:22:17.171Z,27.30
2019-05-19T13:24:46.081Z,26.20
2019-05-19T13:27:14.153Z,26.20
2019-05-19T13:29:42.223Z,25.20
2019-05-19T13:32:10.262Z,24.70
2019-05-19T13:34:38.360Z,24.40
2019-05-19T13:37:06.429Z,24.00
2019-05-19T13:39:34.469Z,23.80
2019-05-19T13:42:02.494Z,23.80
2019-05-19T13:44:30.637Z,23.50
2019-05-19T13:46:58.674Z,23.40
2019-05-19T13:49:26.734Z,23.30
2019-05-19T13:51:54.854Z,23.40
2019-05-19T13:54:22.886Z,23.40
2019-05-19T13:56:50.913Z,23.40
2019-05-19T13:59:18.946Z,23.30
2019-05-19T14:01:46.973Z,23.10
2019-05-19T14:04:15.001Z,23.20
2019-05-19T14:06:43.037Z,23.20
2019-05-19T14:09:11.165Z,23.20
2019-05-19T14:11:39.237Z,23.10
2019-05-19T14:14:07.295Z,22.90
2019-05-19T14:16:35.350Z,23.00
2019-05-19T14:19:03.417Z,23.10
2019-05-19T14:21:31.520Z,24.00
2019-05-19T14:23:59.542Z,24.80
2019-05-19T14:26:28.457Z,25.40
2019-05-19T14:28:56.487Z,25.40
2019-05-19T14:31:24.658Z,25.80
2019-05-19T14:33:52.647Z,26.20
2019-05-19T14:36:20.745Z,26.20
2019-05-19T14:38:54.370Z,25.50
2019-05-19T14:41:33.140Z,25.60
2019-05-19T14:43:51.190Z,26.10
2019-05-19T14:46:19.269Z,26.10
2019-05-19T14:48:47.365Z,25.90
2019-05-19T14:51:15.427Z,25.80
2019-05-19T14:53:43.473Z,25.60
2019-05-19T14:56:11.538Z,25.50
2019-05-19T14:58:40.321Z,25.10
2019-05-19T15:01:09.225Z,25.20
2019-05-19T15:03:37.289Z,25.20
2019-05-19T15:06:06.081Z,24.90
2019-05-19T15:08:34.145Z,24.90
2019-05-19T15:11:02.954Z,24.60
2019-05-19T15:13:31.829Z,24.30
2019-05-19T15:15:59.958Z,24.30
2019-05-19T15:18:27.961Z,24.10
2019-05-19T15:20:56.799Z,24.00
2019-05-19T15:23:24.836Z,23.90
2019-05-19T15:25:53.747Z,23.80
2019-05-19T15:28:21.789Z,23.50
2019-05-19T15:30:49.858Z,23.10
2019-05-19T15:33:18.441Z,22.50
2019-05-19T15:35:46.473Z,22.00
2019-05-19T15:38:14.537Z,22.00
2019-05-19T15:40:42.558Z,21.80
2019-05-19T15:43:10.642Z,21.40
2019-05-19T15:45:38.689Z,21.40
2019-05-19T15:48:07.477Z,21.30
2019-05-19T15:50:35.552Z,21.30
2019-05-19T15:53:03.618Z,21.30
2019-05-19T15:55:31.650Z,21.20
2019-05-19T15:58:14.195Z,21.10
2019-05-19T16:00:27.893Z,21.00
2019-05-19T16:02:56.031Z,21.10
2019-05-19T16:05:24.058Z,21.20
2019-05-19T16:07:52.987Z,21.00
2019-05-19T16:10:21.009Z,21.00
2019-05-19T16:12:49.047Z,21.10
2019-05-19T16:15:17.098Z,21.00
2019-05-19T16:17:45.185Z,20.80
2019-05-19T16:20:13.234Z,20.70
2019-05-19T16:22:41.263Z,20.50
2019-05-19T16:25:10.061Z,20.70
2019-05-19T16:27:38.880Z,20.80
2019-05-19T16:30:07.661Z,20.80
2019-05-19T16:32:36.461Z,20.80
2019-05-19T16:35:05.227Z,20.70
2019-05-19T16:37:34.041Z,20.80
2019-05-19T16:40:02.801Z,20.80
2019-05-19T16:42:31.577Z,20.80
2019-05-19T16:44:59.678Z,20.80
2019-05-19T16:47:27.822Z,20.90
2019-05-19T16:49:56.709Z,20.90
2019-05-19T16:52:25.539Z,20.70
2019-05-19T16:54:59.199Z,20.70
2019-05-19T16:57:27.291Z,20.30
2019-05-19T16:59:55.321Z,20.30
2019-05-19T17:02:23.354Z,20.10
2019-05-19T17:04:51.381Z,19.90
2019-05-19T17:07:19.398Z,19.50
2019-05-19T17:09:47.450Z,19.50
2019-05-19T17:12:15.481Z,19.50
2019-05-19T17:14:44.278Z,19.60
2019-05-19T17:17:12.373Z,19.60
2019-05-19T17:19:40.429Z,19.60
2019-05-19T17:22:08.495Z,19.30
2019-05-19T17:24:36.587Z,19.30
2019-05-19T17:27:04.664Z,19.60
2019-05-19T17:29:32.701Z,19.60
2019-05-19T17:32:05.877Z,19.50
2019-05-19T17:34:29.663Z,19.50
2019-05-19T17:36:57.780Z,19.70
2019-05-19T17:39:25.814Z,19.80
2019-05-19T17:41:53.846Z,19.80
2019-05-19T17:44:21.933Z,19.80
2019-05-19T17:46:50.767Z,18.90
2019-05-19T17:49:19.610Z,18.50
2019-05-19T17:51:48.402Z,18.50
2019-05-19T17:54:19.730Z,18.60
2019-05-19T17:56:46.103Z,18.70
2019-05-19T17:59:16.650Z,18.70
2019-05-19T18:01:42.329Z,18.80
2019-05-19T18:04:10.430Z,18.60
2019-05-19T18:06:38.531Z,18.50
2019-05-19T18:09:06.704Z,18.30
2019-05-19T18:11:34.701Z,18.00
2019-05-19T18:14:19.309Z,17.60
2019-05-19T18:16:47.403Z,17.50
2019-05-19T18:19:15.446Z,17.50
2019-05-19T18:21:43.468Z,17.30
2019-05-19T18:24:11.477Z,17.40
2019-05-19T18:26:39.515Z,17.30
2019-05-19T18:29:08.313Z,17.10
2019-05-19T18:31:36.346Z,17.10
2019-05-19T18:34:04.388Z,17.10
2019-05-19T18:36:32.411Z,16.80
2019-05-19T18:39:00.529Z,16.60
2019-05-19T18:41:28.553Z,16.80
2019-05-19T18:43:57.386Z,17.20
2019-05-19T18:46:25.431Z,17.20
2019-05-19T18:48:53.594Z,17.20
2019-05-19T18:51:22.429Z,17.40
2019-05-19T18:53:50.469Z,17.40
2019-05-19T18:56:18.533Z,17.50
2019-05-19T18:58:47.313Z,17.50
2019-05-19T19:01:16.105Z,17.40
2019-05-19T19:03:44.134Z,17.30
2019-05-19T19:06:12.208Z,17.20
2019-05-19T19:08:40.243Z,17.10
2019-05-19T19:11:08.277Z,17.20
2019-05-19T19:13:37.077Z,17.30
2019-05-19T19:16:05.900Z,17.00
2019-05-19T19:18:33.922Z,17.00
2019-05-19T19:21:01.969Z,17.10
2019-05-19T19:23:30.021Z,16.90
2019-05-19T19:25:58.058Z,16.80
2019-05-19T19:28:26.126Z,16.60
2019-05-19T19:30:54.185Z,16.70
2019-05-19T19:33:22.242Z,16.70
2019-05-19T19:35:51.031Z,16.90
2019-05-19T19:38:19.898Z,17.00
2019-05-19T19:40:48.843Z,16.80
2019-05-19T19:43:16.873Z,16.80
2019-05-19T19:45:44.886Z,16.80
2019-05-19T19:48:13.061Z,16.50
2019-05-19T19:50:41.195Z,16.30
2019-05-19T19:53:10.001Z,16.40
2019-05-19T19:55:38.070Z,16.30
2019-05-19T19:58:06.105Z,16.20
2019-05-19T20:00:42.146Z,16.20
2019-05-19T20:03:10.204Z,16.30
2019-05-19T20:05:38.261Z,16.50
2019-05-19T20:08:06.365Z,16.30
2019-05-19T20:10:34.390Z,16.30
2019-05-19T20:13:02.853Z,16.20
2019-05-19T20:15:30.889Z,16.20
2019-05-19T20:18:00.410Z,16.00
2019-05-19T20:20:29.214Z,16.00
2019-05-19T20:22:57.598Z,15.90
2019-05-19T20:25:25.653Z,15.90
2019-05-19T20:27:53.730Z,15.80
2019-05-19T20:30:34.545Z,16.10
2019-05-19T20:32:50.690Z,16.00
2019-05-19T20:35:18.734Z,16.00
2019-05-19T20:37:47.586Z,15.90
2019-05-19T20:40:15.623Z,15.90
2019-05-19T20:42:43.691Z,15.80
2019-05-19T20:45:12.453Z,15.90
2019-05-19T20:47:41.241Z,16.00
2019-05-19T20:50:10.074Z,16.00
2019-05-19T20:52:38.109Z,15.90
2019-05-19T20:55:06.941Z,16.10
2019-05-19T20:57:34.978Z,16.10
2019-05-19T21:00:03.006Z,16.00
2019-05-19T21:02:32.669Z,15.80
2019-05-19T21:05:00.721Z,15.80
2019-05-19T21:07:28.819Z,15.70
2019-05-19T21:09:56.942Z,15.80
2019-05-19T21:12:25.737Z,15.80
2019-05-19T21:14:54.631Z,15.90
2019-05-19T21:17:23.545Z,15.60
2019-05-19T21:19:51.736Z,15.50
2019-05-19T21:22:19.765Z,15.50
2019-05-19T21:24:47.816Z,15.50
2019-05-19T21:27:15.805Z,15.60
2019-05-19T21:29:44.729Z,15.60
2019-05-19T21:32:12.763Z,15.60
2019-05-19T21:34:41.553Z,15.20
2019-05-19T21:37:09.633Z,15.20
2019-05-19T21:39:37.709Z,15.10
2019-05-19T21:42:05.750Z,15.00
2019-05-19T21:44:34.537Z,14.80
2019-05-19T21:47:03.054Z,14.80
2019-05-19T21:49:31.845Z,14.80
2019-05-19T21:51:59.881Z,14.70
2019-05-19T21:54:28.669Z,15.00
2019-05-19T21:56:57.593Z,15.00
2019-05-19T21:59:25.662Z,15.00
2019-05-19T22:01:53.698Z,14.90
2019-05-19T22:04:22.593Z,14.60
2019-05-19T22:06:55.213Z,14.60
2019-05-19T22:09:23.391Z,14.60
2019-05-19T22:11:51.421Z,14.60
2019-05-19T22:14:19.489Z,14.70
2019-05-19T22:16:47.566Z,14.70
2019-05-19T22:19:16.006Z,14.60
2019-05-19T22:21:43.644Z,14.70
2019-05-19T22:24:11.666Z,14.70
2019-05-19T22:26:40.485Z,14.70
2019-05-19T22:29:08.539Z,14.70
2019-05-19T22:31:37.408Z,14.60
2019-05-19T22:34:06.140Z,14.70
2019-05-19T22:36:34.179Z,14.70
2019-05-19T22:39:02.242Z,14.70
2019-05-19T22:41:30.313Z,14.80
2019-05-19T22:43:58.345Z,14.70
2019-05-19T22:46:27.882Z,14.70
2019-05-19T22:48:56.798Z,14.80
2019-05-19T22:51:24.821Z,14.80
2019-05-19T22:53:52.913Z,14.80
2019-05-19T22:56:21.725Z,14.80
2019-05-19T22:58:49.777Z,14.80
2019-05-19T23:01:17.854Z,14.70
2019-05-19T23:03:45.885Z,14.80
2019-05-19T23:06:14.002Z,14.60
2019-05-19T23:08:42.132Z,14.50
2019-05-19T23:11:10.145Z,14.50
2019-05-19T23:13:38.207Z,14.50
2019-05-19T23:16:06.237Z,14.60
2019-05-19T23:18:34.341Z,14.50
2019-05-19T23:21:03.158Z,14.10
2019-05-19T23:23:31.268Z,14.10
2019-05-19T23:25:59.270Z,14.20
2019-05-19T23:28:28.162Z,14.30
2019-05-19T23:30:56.230Z,14.30
2019-05-19T23:33:24.306Z,14.40
2019-05-19T23:35:52.329Z,14.30
2019-05-19T23:38:20.373Z,14.20
2019-05-19T23:40:48.400Z,14.00
2019-05-19T23:43:17.292Z,14.00
2019-05-19T23:45:46.102Z,14.00
2019-05-19T23:48:14.157Z,14.00
2019-05-19T23:50:42.225Z,13.90
2019-05-19T23:53:11.153Z,13.90
2019-05-19T23:55:39.198Z,13.90
2019-05-19T23:58:07.261Z,13.90
